sensor_id;sensor_type;location;lat;lon;timestamp;P1;durP1;ratioP1;P2;durP2;ratioP2
56427;SDS011;42331;53.578;9.760;2023-06-19T00:01:13;5.53;;;4.07;;
56427;SDS011;42331;53.578;9.760;2023-06-19T00:03:43;4.73;;;2.97;;
56427;SDS011;42331;53.578;9.760;2023-06-19T00:06:14;8.97;;;3.97;;
56427;SDS011;42331;53.578;9.760;2023-06-19T00:08:45;6.80;;;4.30;;
56427;SDS011;42331;53.578;9.760;2023-06-19T00:11:15;5.80;;;4.00;;
56427;SDS011;42331;53.578;9.760;2023-06-19T00:13:46;7.03;;;4.13;;
56427;SDS011;42331;53.578;9.760;2023-06-19T00:16:16;5.93;;;4.30;;
56427;SDS011;42331;53.578;9.760;2023-06-19T00:18:48;10.90;;;4.68;;
56427;SDS011;42331;53.578;9.760;2023-06-19T00:21:18;7.57;;;4.03;;
56427;SDS011;42331;53.578;9.760;2023-06-19T00:23:49;6.93;;;4.43;;
56427;SDS011;42331;53.578;9.760;2023-06-19T00:26:20;6.07;;;4.13;;
56427;SDS011;42331;53.578;9.760;2023-06-19T00:28:52;5.95;;;4.50;;
56427;SDS011;42331;53.578;9.760;2023-06-19T00:31:23;6.37;;;4.53;;
56427;SDS011;42331;53.578;9.760;2023-06-19T00:33:54;5.70;;;4.20;;
56427;SDS011;42331;53.578;9.760;2023-06-19T00:36:24;7.40;;;4.50;;
56427;SDS011;42331;53.578;9.760;2023-06-19T00:38:57;5.95;;;3.92;;
56427;SDS011;42331;53.578;9.760;2023-06-19T00:41:28;5.43;;;4.27;;
56427;SDS011;42331;53.578;9.760;2023-06-19T00:44:00;7.10;;;4.13;;
56427;SDS011;42331;53.578;9.760;2023-06-19T00:46:31;6.80;;;4.63;;
56427;SDS011;42331;53.578;9.760;2023-06-19T00:49:02;5.60;;;4.13;;
56427;SDS011;42331;53.578;9.760;2023-06-19T00:51:33;5.77;;;4.67;;
56427;SDS011;42331;53.578;9.760;2023-06-19T00:54:04;6.97;;;4.43;;
56427;SDS011;42331;53.578;9.760;2023-06-19T00:56:36;7.18;;;4.63;;
56427;SDS011;42331;53.578;9.760;2023-06-19T00:59:11;8.43;;;4.60;;
56427;SDS011;42331;53.578;9.760;2023-06-19T01:01:47;5.75;;;3.67;;
56427;SDS011;42331;53.578;9.760;2023-06-19T01:04:18;6.13;;;4.30;;
56427;SDS011;42331;53.578;9.760;2023-06-19T01:06:56;5.60;;;4.07;;
56427;SDS011;42331;53.578;9.760;2023-06-19T01:09:33;6.07;;;4.25;;
56427;SDS011;42331;53.578;9.760;2023-06-19T01:12:15;7.45;;;4.60;;
56427;SDS011;42331;53.578;9.760;2023-06-19T01:14:55;7.60;;;4.50;;
56427;SDS011;42331;53.578;9.760;2023-06-19T01:17:28;5.30;;;4.25;;
56427;SDS011;42331;53.578;9.760;2023-06-19T01:19:59;6.03;;;4.35;;
56427;SDS011;42331;53.578;9.760;2023-06-19T01:22:36;6.38;;;4.72;;
56427;SDS011;42331;53.578;9.760;2023-06-19T01:25:07;7.07;;;4.50;;
56427;SDS011;42331;53.578;9.760;2023-06-19T01:27:39;7.07;;;4.43;;
56427;SDS011;42331;53.578;9.760;2023-06-19T01:30:12;7.55;;;4.60;;
56427;SDS011;42331;53.578;9.760;2023-06-19T01:35:23;7.43;;;4.28;;
56427;SDS011;42331;53.578;9.760;2023-06-19T01:37:57;7.63;;;4.70;;
56427;SDS011;42331;53.578;9.760;2023-06-19T01:40:30;8.43;;;5.10;;
56427;SDS011;42331;53.578;9.760;2023-06-19T01:43:02;7.88;;;4.88;;
56427;SDS011;42331;53.578;9.760;2023-06-19T01:45:34;6.57;;;4.65;;
56427;SDS011;42331;53.578;9.760;2023-06-19T01:48:05;7.07;;;5.27;;
56427;SDS011;42331;53.578;9.760;2023-06-19T01:50:36;6.93;;;5.03;;
56427;SDS011;42331;53.578;9.760;2023-06-19T01:53:06;6.67;;;4.90;;
56427;SDS011;42331;53.578;9.760;2023-06-19T01:55:38;6.88;;;5.25;;
56427;SDS011;42331;53.578;9.760;2023-06-19T01:58:08;6.53;;;5.10;;
56427;SDS011;42331;53.578;9.760;2023-06-19T02:00:39;6.50;;;5.23;;
56427;SDS011;42331;53.578;9.760;2023-06-19T02:03:10;7.37;;;4.97;;
56427;SDS011;42331;53.578;9.760;2023-06-19T02:05:41;8.23;;;5.30;;
56427;SDS011;42331;53.578;9.760;2023-06-19T02:08:12;9.88;;;4.88;;
56427;SDS011;42331;53.578;9.760;2023-06-19T02:10:43;6.23;;;4.57;;
56427;SDS011;42331;53.578;9.760;2023-06-19T02:13:13;7.80;;;5.63;;
56427;SDS011;42331;53.578;9.760;2023-06-19T02:15:44;11.17;;;5.10;;
56427;SDS011;42331;53.578;9.760;2023-06-19T02:18:15;8.03;;;5.33;;
56427;SDS011;42331;53.578;9.760;2023-06-19T02:20:45;6.23;;;5.07;;
56427;SDS011;42331;53.578;9.760;2023-06-19T02:23:16;7.67;;;5.10;;
56427;SDS011;42331;53.578;9.760;2023-06-19T02:25:47;7.10;;;5.13;;
56427;SDS011;42331;53.578;9.760;2023-06-19T02:28:17;6.00;;;4.97;;
56427;SDS011;42331;53.578;9.760;2023-06-19T02:30:48;6.07;;;5.10;;
56427;SDS011;42331;53.578;9.760;2023-06-19T02:33:18;11.03;;;5.50;;
56427;SDS011;42331;53.578;9.760;2023-06-19T02:35:49;8.83;;;5.47;;
56427;SDS011;42331;53.578;9.760;2023-06-19T02:38:20;8.87;;;6.23;;
56427;SDS011;42331;53.578;9.760;2023-06-19T02:40:51;9.30;;;5.32;;
56427;SDS011;42331;53.578;9.760;2023-06-19T02:43:22;7.50;;;5.67;;
56427;SDS011;42331;53.578;9.760;2023-06-19T02:45:52;8.30;;;5.83;;
56427;SDS011;42331;53.578;9.760;2023-06-19T02:48:23;8.80;;;5.57;;
56427;SDS011;42331;53.578;9.760;2023-06-19T02:50:54;8.00;;;5.93;;
56427;SDS011;42331;53.578;9.760;2023-06-19T02:53:24;8.20;;;6.03;;
56427;SDS011;42331;53.578;9.760;2023-06-19T02:55:55;7.53;;;5.73;;
56427;SDS011;42331;53.578;9.760;2023-06-19T02:58:26;6.73;;;5.27;;
56427;SDS011;42331;53.578;9.760;2023-06-19T03:00:57;8.20;;;5.82;;
56427;SDS011;42331;53.578;9.760;2023-06-19T03:03:28;10.20;;;6.03;;
56427;SDS011;42331;53.578;9.760;2023-06-19T03:05:59;7.65;;;5.78;;
56427;SDS011;42331;53.578;9.760;2023-06-19T03:08:31;8.48;;;5.97;;
56427;SDS011;42331;53.578;9.760;2023-06-19T03:11:03;7.18;;;5.43;;
56427;SDS011;42331;53.578;9.760;2023-06-19T03:16:17;9.05;;;5.70;;
56427;SDS011;42331;53.578;9.760;2023-06-19T03:18:48;8.90;;;5.93;;
56427;SDS011;42331;53.578;9.760;2023-06-19T03:21:18;6.57;;;5.70;;
56427;SDS011;42331;53.578;9.760;2023-06-19T03:23:49;8.33;;;5.33;;
56427;SDS011;42331;53.578;9.760;2023-06-19T03:26:20;8.47;;;5.77;;
56427;SDS011;42331;53.578;9.760;2023-06-19T03:28:51;7.63;;;5.78;;
56427;SDS011;42331;53.578;9.760;2023-06-19T03:31:23;10.55;;;5.88;;
56427;SDS011;42331;53.578;9.760;2023-06-19T03:33:53;7.33;;;5.33;;
56427;SDS011;42331;53.578;9.760;2023-06-19T03:36:24;9.30;;;5.67;;
56427;SDS011;42331;53.578;9.760;2023-06-19T03:38:54;9.13;;;6.13;;
56427;SDS011;42331;53.578;9.760;2023-06-19T03:41:25;10.83;;;6.00;;
56427;SDS011;42331;53.578;9.760;2023-06-19T03:43:56;10.03;;;5.50;;
56427;SDS011;42331;53.578;9.760;2023-06-19T03:46:27;9.53;;;5.57;;
56427;SDS011;42331;53.578;9.760;2023-06-19T03:48:57;6.10;;;5.33;;
56427;SDS011;42331;53.578;9.760;2023-06-19T03:51:28;7.83;;;5.70;;
56427;SDS011;42331;53.578;9.760;2023-06-19T03:53:59;7.73;;;5.73;;
56427;SDS011;42331;53.578;9.760;2023-06-19T03:56:29;7.13;;;5.67;;
56427;SDS011;42331;53.578;9.760;2023-06-19T03:59:00;6.70;;;5.73;;
56427;SDS011;42331;53.578;9.760;2023-06-19T04:01:31;7.83;;;6.00;;
56427;SDS011;42331;53.578;9.760;2023-06-19T04:04:01;9.40;;;5.93;;
56427;SDS011;42331;53.578;9.760;2023-06-19T04:06:32;8.30;;;5.60;;
56427;SDS011;42331;53.578;9.760;2023-06-19T04:09:02;8.53;;;5.93;;
56427;SDS011;42331;53.578;9.760;2023-06-19T04:11:34;8.05;;;5.32;;
56427;SDS011;42331;53.578;9.760;2023-06-19T04:14:05;7.10;;;5.77;;
56427;SDS011;42331;53.578;9.760;2023-06-19T04:16:36;8.40;;;5.77;;
56427;SDS011;42331;53.578;9.760;2023-06-19T04:19:06;8.70;;;5.87;;
56427;SDS011;42331;53.578;9.760;2023-06-19T04:21:37;8.93;;;6.60;;
56427;SDS011;42331;53.578;9.760;2023-06-19T04:24:08;8.93;;;6.63;;
56427;SDS011;42331;53.578;9.760;2023-06-19T04:26:39;8.20;;;6.30;;
56427;SDS011;42331;53.578;9.760;2023-06-19T04:29:10;7.32;;;6.00;;
56427;SDS011;42331;53.578;9.760;2023-06-19T04:31:46;9.18;;;5.90;;
56427;SDS011;42331;53.578;9.760;2023-06-19T04:34:18;8.10;;;6.17;;
56427;SDS011;42331;53.578;9.760;2023-06-19T04:36:51;10.18;;;6.10;;
56427;SDS011;42331;53.578;9.760;2023-06-19T04:39:21;9.17;;;6.20;;
56427;SDS011;42331;53.578;9.760;2023-06-19T04:41:52;7.10;;;5.80;;
56427;SDS011;42331;53.578;9.760;2023-06-19T04:44:23;10.63;;;6.07;;
56427;SDS011;42331;53.578;9.760;2023-06-19T04:46:53;7.70;;;5.83;;
56427;SDS011;42331;53.578;9.760;2023-06-19T04:49:30;8.60;;;5.72;;
56427;SDS011;42331;53.578;9.760;2023-06-19T04:52:01;9.93;;;6.10;;
56427;SDS011;42331;53.578;9.760;2023-06-19T04:54:33;9.20;;;6.55;;
56427;SDS011;42331;53.578;9.760;2023-06-19T04:57:04;9.17;;;6.10;;
56427;SDS011;42331;53.578;9.760;2023-06-19T04:59:35;8.57;;;6.67;;
56427;SDS011;42331;53.578;9.760;2023-06-19T05:02:05;10.37;;;6.67;;
56427;SDS011;42331;53.578;9.760;2023-06-19T05:04:37;9.45;;;6.43;;
56427;SDS011;42331;53.578;9.760;2023-06-19T05:07:08;9.40;;;6.93;;
56427;SDS011;42331;53.578;9.760;2023-06-19T05:09:40;10.70;;;6.85;;
56427;SDS011;42331;53.578;9.760;2023-06-19T05:12:11;9.17;;;7.17;;
56427;SDS011;42331;53.578;9.760;2023-06-19T05:14:42;9.20;;;6.70;;
56427;SDS011;42331;53.578;9.760;2023-06-19T05:17:13;8.50;;;6.40;;
56427;SDS011;42331;53.578;9.760;2023-06-19T05:19:43;9.50;;;6.83;;
56427;SDS011;42331;53.578;9.760;2023-06-19T05:22:14;9.17;;;6.07;;
56427;SDS011;42331;53.578;9.760;2023-06-19T05:24:44;9.90;;;7.23;;
56427;SDS011;42331;53.578;9.760;2023-06-19T05:27:15;9.80;;;7.10;;
56427;SDS011;42331;53.578;9.760;2023-06-19T05:29:46;9.30;;;6.63;;
56427;SDS011;42331;53.578;9.760;2023-06-19T05:32:17;9.83;;;6.77;;
56427;SDS011;42331;53.578;9.760;2023-06-19T05:34:47;11.90;;;6.90;;
56427;SDS011;42331;53.578;9.760;2023-06-19T05:37:18;11.47;;;7.00;;
56427;SDS011;42331;53.578;9.760;2023-06-19T05:39:49;7.67;;;6.43;;
56427;SDS011;42331;53.578;9.760;2023-06-19T05:42:19;10.20;;;6.70;;
56427;SDS011;42331;53.578;9.760;2023-06-19T05:44:50;12.40;;;6.57;;
56427;SDS011;42331;53.578;9.760;2023-06-19T05:47:21;13.47;;;7.13;;
56427;SDS011;42331;53.578;9.760;2023-06-19T05:49:54;9.65;;;6.50;;
56427;SDS011;42331;53.578;9.760;2023-06-19T05:52:25;8.33;;;6.77;;
56427;SDS011;42331;53.578;9.760;2023-06-19T05:54:55;11.87;;;6.77;;
56427;SDS011;42331;53.578;9.760;2023-06-19T05:57:28;9.75;;;6.78;;
56427;SDS011;42331;53.578;9.760;2023-06-19T05:59:58;8.37;;;7.03;;
56427;SDS011;42331;53.578;9.760;2023-06-19T06:02:29;8.73;;;6.70;;
56427;SDS011;42331;53.578;9.760;2023-06-19T06:05:00;9.17;;;7.50;;
56427;SDS011;42331;53.578;9.760;2023-06-19T06:07:30;10.03;;;7.77;;
56427;SDS011;42331;53.578;9.760;2023-06-19T06:10:01;7.90;;;7.10;;
56427;SDS011;42331;53.578;9.760;2023-06-19T06:12:35;10.85;;;7.30;;
56427;SDS011;42331;53.578;9.760;2023-06-19T06:15:06;11.38;;;7.40;;
56427;SDS011;42331;53.578;9.760;2023-06-19T06:17:37;15.68;;;8.27;;
56427;SDS011;42331;53.578;9.760;2023-06-19T06:20:08;9.47;;;7.87;;
56427;SDS011;42331;53.578;9.760;2023-06-19T06:22:42;10.52;;;7.28;;
56427;SDS011;42331;53.578;9.760;2023-06-19T06:25:13;12.45;;;7.43;;
56427;SDS011;42331;53.578;9.760;2023-06-19T06:27:43;11.97;;;7.87;;
56427;SDS011;42331;53.578;9.760;2023-06-19T06:30:14;9.33;;;7.60;;
56427;SDS011;42331;53.578;9.760;2023-06-19T06:32:45;8.75;;;7.13;;
56427;SDS011;42331;53.578;9.760;2023-06-19T06:35:16;9.73;;;7.73;;
56427;SDS011;42331;53.578;9.760;2023-06-19T06:37:46;11.53;;;7.27;;
56427;SDS011;42331;53.578;9.760;2023-06-19T06:40:19;9.90;;;7.15;;
56427;SDS011;42331;53.578;9.760;2023-06-19T06:42:50;10.60;;;7.45;;
56427;SDS011;42331;53.578;9.760;2023-06-19T06:45:21;12.33;;;7.10;;
56427;SDS011;42331;53.578;9.760;2023-06-19T06:47:52;9.50;;;7.43;;
56427;SDS011;42331;53.578;9.760;2023-06-19T06:50:22;18.73;;;7.73;;
56427;SDS011;42331;53.578;9.760;2023-06-19T06:52:53;11.47;;;7.50;;
56427;SDS011;42331;53.578;9.760;2023-06-19T06:55:23;12.33;;;7.67;;
56427;SDS011;42331;53.578;9.760;2023-06-19T06:57:54;9.80;;;6.63;;
56427;SDS011;42331;53.578;9.760;2023-06-19T07:00:25;8.27;;;6.80;;
56427;SDS011;42331;53.578;9.760;2023-06-19T07:02:56;12.53;;;7.40;;
56427;SDS011;42331;53.578;9.760;2023-06-19T07:05:26;12.73;;;7.17;;
56427;SDS011;42331;53.578;9.760;2023-06-19T07:07:59;11.02;;;6.88;;
56427;SDS011;42331;53.578;9.760;2023-06-19T07:10:30;9.83;;;7.30;;
56427;SDS011;42331;53.578;9.760;2023-06-19T07:13:01;11.77;;;7.25;;
56427;SDS011;42331;53.578;9.760;2023-06-19T07:15:31;9.67;;;6.57;;
56427;SDS011;42331;53.578;9.760;2023-06-19T07:18:02;10.13;;;6.63;;
56427;SDS011;42331;53.578;9.760;2023-06-19T07:20:33;7.67;;;6.53;;
56427;SDS011;42331;53.578;9.760;2023-06-19T07:23:03;9.43;;;7.00;;
56427;SDS011;42331;53.578;9.760;2023-06-19T07:25:34;8.73;;;7.23;;
56427;SDS011;42331;53.578;9.760;2023-06-19T07:28:05;11.40;;;7.47;;
56427;SDS011;42331;53.578;9.760;2023-06-19T07:30:36;8.77;;;6.80;;
56427;SDS011;42331;53.578;9.760;2023-06-19T07:33:06;8.00;;;7.13;;
56427;SDS011;42331;53.578;9.760;2023-06-19T07:35:37;9.57;;;7.20;;
56427;SDS011;42331;53.578;9.760;2023-06-19T07:38:07;10.33;;;7.27;;
56427;SDS011;42331;53.578;9.760;2023-06-19T07:40:38;9.10;;;7.00;;
56427;SDS011;42331;53.578;9.760;2023-06-19T07:43:09;11.77;;;7.27;;
56427;SDS011;42331;53.578;9.760;2023-06-19T07:45:39;6.97;;;5.07;;
56427;SDS011;42331;53.578;9.760;2023-06-19T07:48:10;10.43;;;6.90;;
56427;SDS011;42331;53.578;9.760;2023-06-19T07:50:41;9.23;;;7.50;;
56427;SDS011;42331;53.578;9.760;2023-06-19T07:53:12;8.73;;;7.23;;
56427;SDS011;42331;53.578;9.760;2023-06-19T07:55:42;9.20;;;7.73;;
56427;SDS011;42331;53.578;9.760;2023-06-19T07:58:13;10.23;;;7.87;;
56427;SDS011;42331;53.578;9.760;2023-06-19T08:00:44;8.30;;;7.10;;
56427;SDS011;42331;53.578;9.760;2023-06-19T08:03:15;11.93;;;7.50;;
56427;SDS011;42331;53.578;9.760;2023-06-19T08:05:45;12.33;;;7.27;;
56427;SDS011;42331;53.578;9.760;2023-06-19T08:08:16;12.73;;;7.90;;
56427;SDS011;42331;53.578;9.760;2023-06-19T08:10:47;9.97;;;7.37;;
56427;SDS011;42331;53.578;9.760;2023-06-19T08:13:17;10.57;;;7.47;;
56427;SDS011;42331;53.578;9.760;2023-06-19T08:15:48;10.30;;;7.50;;
56427;SDS011;42331;53.578;9.760;2023-06-19T08:18:19;9.27;;;7.47;;
56427;SDS011;42331;53.578;9.760;2023-06-19T08:20:49;10.07;;;7.30;;
56427;SDS011;42331;53.578;9.760;2023-06-19T08:23:20;9.70;;;7.63;;
56427;SDS011;42331;53.578;9.760;2023-06-19T08:25:51;10.37;;;7.43;;
56427;SDS011;42331;53.578;9.760;2023-06-19T08:28:21;10.63;;;7.93;;
56427;SDS011;42331;53.578;9.760;2023-06-19T08:30:52;10.50;;;7.43;;
56427;SDS011;42331;53.578;9.760;2023-06-19T08:33:23;12.97;;;7.40;;
56427;SDS011;42331;53.578;9.760;2023-06-19T08:35:54;10.02;;;7.13;;
56427;SDS011;42331;53.578;9.760;2023-06-19T08:38:24;11.33;;;7.47;;
56427;SDS011;42331;53.578;9.760;2023-06-19T08:40:55;14.10;;;7.73;;
56427;SDS011;42331;53.578;9.760;2023-06-19T08:43:26;8.90;;;7.13;;
56427;SDS011;42331;53.578;9.760;2023-06-19T08:46:01;8.35;;;7.13;;
56427;SDS011;42331;53.578;9.760;2023-06-19T08:48:39;10.32;;;7.72;;
56427;SDS011;42331;53.578;9.760;2023-06-19T08:51:11;8.70;;;6.95;;
56427;SDS011;42331;53.578;9.760;2023-06-19T08:53:45;9.13;;;7.38;;
56427;SDS011;42331;53.578;9.760;2023-06-19T08:56:25;7.78;;;6.97;;
56427;SDS011;42331;53.578;9.760;2023-06-19T08:58:56;12.57;;;7.17;;
56427;SDS011;42331;53.578;9.760;2023-06-19T09:01:27;9.63;;;6.77;;
56427;SDS011;42331;53.578;9.760;2023-06-19T09:03:57;13.73;;;7.67;;
56427;SDS011;42331;53.578;9.760;2023-06-19T09:06:28;10.30;;;7.13;;
56427;SDS011;42331;53.578;9.760;2023-06-19T09:08:59;10.90;;;7.47;;
56427;SDS011;42331;53.578;9.760;2023-06-19T09:11:30;9.60;;;6.68;;
56427;SDS011;42331;53.578;9.760;2023-06-19T09:14:00;10.53;;;6.67;;
56427;SDS011;42331;53.578;9.760;2023-06-19T09:16:38;12.10;;;7.97;;
56427;SDS011;42331;53.578;9.760;2023-06-19T09:19:10;10.93;;;7.40;;
56427;SDS011;42331;53.578;9.760;2023-06-19T09:21:41;8.90;;;7.10;;
56427;SDS011;42331;53.578;9.760;2023-06-19T09:24:11;8.00;;;6.67;;
56427;SDS011;42331;53.578;9.760;2023-06-19T09:26:42;10.90;;;7.00;;
56427;SDS011;42331;53.578;9.760;2023-06-19T09:29:14;9.70;;;6.88;;
56427;SDS011;42331;53.578;9.760;2023-06-19T09:31:49;14.75;;;7.50;;
56427;SDS011;42331;53.578;9.760;2023-06-19T09:34:19;13.23;;;7.63;;
56427;SDS011;42331;53.578;9.760;2023-06-19T09:36:50;10.83;;;6.77;;
56427;SDS011;42331;53.578;9.760;2023-06-19T09:39:21;10.63;;;7.72;;
56427;SDS011;42331;53.578;9.760;2023-06-19T09:41:54;10.60;;;7.60;;
56427;SDS011;42331;53.578;9.760;2023-06-19T09:44:31;8.88;;;6.70;;
56427;SDS011;42331;53.578;9.760;2023-06-19T09:47:04;11.18;;;7.32;;
56427;SDS011;42331;53.578;9.760;2023-06-19T09:49:54;12.52;;;7.43;;
56427;SDS011;42331;53.578;9.760;2023-06-19T09:52:25;11.38;;;7.70;;
56427;SDS011;42331;53.578;9.760;2023-06-19T09:54:57;10.98;;;7.32;;
56427;SDS011;42331;53.578;9.760;2023-06-19T09:57:32;10.80;;;7.10;;
56427;SDS011;42331;53.578;9.760;2023-06-19T10:00:08;12.57;;;7.10;;
56427;SDS011;42331;53.578;9.760;2023-06-19T10:02:46;9.13;;;7.07;;
56427;SDS011;42331;53.578;9.760;2023-06-19T10:05:17;10.15;;;6.88;;
56427;SDS011;42331;53.578;9.760;2023-06-19T10:07:58;11.73;;;7.05;;
56427;SDS011;42331;53.578;9.760;2023-06-19T10:10:31;11.45;;;7.05;;
56427;SDS011;42331;53.578;9.760;2023-06-19T10:13:11;10.35;;;6.88;;
56427;SDS011;42331;53.578;9.760;2023-06-19T10:18:15;7.65;;;6.40;;
56427;SDS011;42331;53.578;9.760;2023-06-19T10:20:46;10.07;;;6.43;;
56427;SDS011;42331;53.578;9.760;2023-06-19T10:23:18;7.40;;;6.10;;
56427;SDS011;42331;53.578;9.760;2023-06-19T10:28:31;7.55;;;5.40;;
56427;SDS011;42331;53.578;9.760;2023-06-19T10:33:36;7.47;;;5.72;;
56427;SDS011;42331;53.578;9.760;2023-06-19T10:36:14;7.40;;;5.60;;
56427;SDS011;42331;53.578;9.760;2023-06-19T10:38:52;7.28;;;5.57;;
56427;SDS011;42331;53.578;9.760;2023-06-19T10:41:24;6.65;;;5.13;;
56427;SDS011;42331;53.578;9.760;2023-06-19T10:44:05;7.03;;;5.03;;
56427;SDS011;42331;53.578;9.760;2023-06-19T10:46:42;7.45;;;5.38;;
56427;SDS011;42331;53.578;9.760;2023-06-19T10:49:13;7.75;;;5.38;;
56427;SDS011;42331;53.578;9.760;2023-06-19T10:51:43;6.97;;;5.50;;
56427;SDS011;42331;53.578;9.760;2023-06-19T10:54:14;8.05;;;5.07;;
56427;SDS011;42331;53.578;9.760;2023-06-19T10:56:45;6.43;;;5.75;;
56427;SDS011;42331;53.578;9.760;2023-06-19T10:59:18;5.93;;;5.20;;
56427;SDS011;42331;53.578;9.760;2023-06-19T11:01:49;6.28;;;5.32;;
56427;SDS011;42331;53.578;9.760;2023-06-19T11:06:53;9.25;;;5.13;;
56427;SDS011;42331;53.578;9.760;2023-06-19T11:09:24;7.13;;;5.53;;
56427;SDS011;42331;53.578;9.760;2023-06-19T11:11:56;6.13;;;4.90;;
56427;SDS011;42331;53.578;9.760;2023-06-19T11:14:31;8.13;;;5.38;;
56427;SDS011;42331;53.578;9.760;2023-06-19T11:17:02;5.78;;;4.90;;
56427;SDS011;42331;53.578;9.760;2023-06-19T11:19:33;5.95;;;4.68;;
56427;SDS011;42331;53.578;9.760;2023-06-19T11:22:04;10.40;;;4.63;;
56427;SDS011;42331;53.578;9.760;2023-06-19T11:24:35;8.35;;;4.97;;
56427;SDS011;42331;53.578;9.760;2023-06-19T11:27:06;11.70;;;4.93;;
56427;SDS011;42331;53.578;9.760;2023-06-19T11:29:54;5.85;;;4.88;;
56427;SDS011;42331;53.578;9.760;2023-06-19T11:32:30;6.72;;;5.13;;
56427;SDS011;42331;53.578;9.760;2023-06-19T11:35:06;7.60;;;4.45;;
56427;SDS011;42331;53.578;9.760;2023-06-19T11:37:39;6.60;;;4.78;;
56427;SDS011;42331;53.578;9.760;2023-06-19T11:40:11;7.75;;;5.00;;
56427;SDS011;42331;53.578;9.760;2023-06-19T11:42:46;6.28;;;4.90;;
56427;SDS011;42331;53.578;9.760;2023-06-19T11:45:18;6.35;;;4.60;;
56427;SDS011;42331;53.578;9.760;2023-06-19T11:47:49;5.10;;;4.40;;
56427;SDS011;42331;53.578;9.760;2023-06-19T11:50:26;5.45;;;4.68;;
56427;SDS011;42331;53.578;9.760;2023-06-19T11:52:57;6.93;;;4.88;;
56427;SDS011;42331;53.578;9.760;2023-06-19T11:55:30;6.75;;;4.50;;
56427;SDS011;42331;53.578;9.760;2023-06-19T11:58:00;7.15;;;4.55;;
56427;SDS011;42331;53.578;9.760;2023-06-19T12:00:31;7.53;;;4.87;;
56427;SDS011;42331;53.578;9.760;2023-06-19T12:03:02;7.93;;;4.60;;
56427;SDS011;42331;53.578;9.760;2023-06-19T12:05:33;8.63;;;4.80;;
56427;SDS011;42331;53.578;9.760;2023-06-19T12:08:04;9.30;;;4.43;;
56427;SDS011;42331;53.578;9.760;2023-06-19T12:10:36;7.90;;;4.07;;
56427;SDS011;42331;53.578;9.760;2023-06-19T12:13:07;5.87;;;4.50;;
56427;SDS011;42331;53.578;9.760;2023-06-19T12:15:39;6.32;;;4.28;;
56427;SDS011;42331;53.578;9.760;2023-06-19T12:18:10;8.53;;;4.43;;
56427;SDS011;42331;53.578;9.760;2023-06-19T12:20:42;8.95;;;4.10;;
56427;SDS011;42331;53.578;9.760;2023-06-19T12:23:13;5.20;;;4.30;;
56427;SDS011;42331;53.578;9.760;2023-06-19T12:25:43;12.00;;;4.93;;
56427;SDS011;42331;53.578;9.760;2023-06-19T12:28:14;6.53;;;4.53;;
56427;SDS011;42331;53.578;9.760;2023-06-19T12:30:48;7.45;;;4.70;;
56427;SDS011;42331;53.578;9.760;2023-06-19T12:33:21;9.38;;;5.35;;
56427;SDS011;42331;53.578;9.760;2023-06-19T12:35:52;8.45;;;5.15;;
56427;SDS011;42331;53.578;9.760;2023-06-19T12:38:23;9.47;;;5.07;;
56427;SDS011;42331;53.578;9.760;2023-06-19T12:40:54;7.03;;;4.63;;
56427;SDS011;42331;53.578;9.760;2023-06-19T12:43:24;8.33;;;4.80;;
56427;SDS011;42331;53.578;9.760;2023-06-19T12:45:55;8.27;;;4.57;;
56427;SDS011;42331;53.578;9.760;2023-06-19T12:48:26;10.50;;;4.67;;
56427;SDS011;42331;53.578;9.760;2023-06-19T12:50:57;7.53;;;4.03;;
56427;SDS011;42331;53.578;9.760;2023-06-19T12:53:27;6.87;;;4.63;;
56427;SDS011;42331;53.578;9.760;2023-06-19T12:55:59;6.80;;;4.07;;
56427;SDS011;42331;53.578;9.760;2023-06-19T12:58:30;5.93;;;3.53;;
56427;SDS011;42331;53.578;9.760;2023-06-19T13:01:01;5.72;;;3.70;;
56427;SDS011;42331;53.578;9.760;2023-06-19T13:03:31;6.47;;;3.90;;
56427;SDS011;42331;53.578;9.760;2023-06-19T13:06:02;7.60;;;4.30;;
56427;SDS011;42331;53.578;9.760;2023-06-19T13:08:33;5.23;;;4.20;;
56427;SDS011;42331;53.578;9.760;2023-06-19T13:11:03;10.43;;;4.50;;
56427;SDS011;42331;53.578;9.760;2023-06-19T13:13:34;6.30;;;4.40;;
56427;SDS011;42331;53.578;9.760;2023-06-19T13:16:05;6.03;;;4.17;;
56427;SDS011;42331;53.578;9.760;2023-06-19T13:18:35;7.60;;;3.70;;
56427;SDS011;42331;53.578;9.760;2023-06-19T13:21:06;5.67;;;3.53;;
56427;SDS011;42331;53.578;9.760;2023-06-19T13:23:36;5.30;;;3.63;;
56427;SDS011;42331;53.578;9.760;2023-06-19T13:26:07;9.02;;;3.95;;
56427;SDS011;42331;53.578;9.760;2023-06-19T13:28:38;4.97;;;3.43;;
56427;SDS011;42331;53.578;9.760;2023-06-19T13:31:09;11.07;;;3.50;;
56427;SDS011;42331;53.578;9.760;2023-06-19T13:33:39;6.53;;;3.17;;
56427;SDS011;42331;53.578;9.760;2023-06-19T13:36:10;4.90;;;3.33;;
56427;SDS011;42331;53.578;9.760;2023-06-19T13:38:41;5.23;;;3.33;;
56427;SDS011;42331;53.578;9.760;2023-06-19T13:41:11;4.17;;;3.50;;
56427;SDS011;42331;53.578;9.760;2023-06-19T13:43:42;6.53;;;3.50;;
56427;SDS011;42331;53.578;9.760;2023-06-19T13:46:15;7.35;;;3.65;;
56427;SDS011;42331;53.578;9.760;2023-06-19T13:48:46;7.00;;;3.10;;
56427;SDS011;42331;53.578;9.760;2023-06-19T13:51:20;5.47;;;3.33;;
56427;SDS011;42331;53.578;9.760;2023-06-19T13:53:52;6.45;;;3.30;;
56427;SDS011;42331;53.578;9.760;2023-06-19T13:56:22;4.97;;;3.10;;
56427;SDS011;42331;53.578;9.760;2023-06-19T13:58:54;6.18;;;3.28;;
56427;SDS011;42331;53.578;9.760;2023-06-19T14:01:25;3.47;;;2.90;;
56427;SDS011;42331;53.578;9.760;2023-06-19T14:03:56;5.37;;;2.67;;
56427;SDS011;42331;53.578;9.760;2023-06-19T14:06:27;3.92;;;2.70;;
56427;SDS011;42331;53.578;9.760;2023-06-19T14:08:58;5.50;;;3.27;;
56427;SDS011;42331;53.578;9.760;2023-06-19T14:11:29;4.60;;;2.60;;
56427;SDS011;42331;53.578;9.760;2023-06-19T14:13:59;4.13;;;3.13;;
56427;SDS011;42331;53.578;9.760;2023-06-19T14:16:30;7.50;;;3.40;;
56427;SDS011;42331;53.578;9.760;2023-06-19T14:19:01;5.57;;;3.40;;
56427;SDS011;42331;53.578;9.760;2023-06-19T14:21:31;5.57;;;3.40;;
56427;SDS011;42331;53.578;9.760;2023-06-19T14:24:02;5.63;;;3.77;;
56427;SDS011;42331;53.578;9.760;2023-06-19T14:26:33;6.30;;;3.20;;
56427;SDS011;42331;53.578;9.760;2023-06-19T14:29:04;4.63;;;2.50;;
56427;SDS011;42331;53.578;9.760;2023-06-19T14:31:34;4.13;;;3.27;;
56427;SDS011;42331;53.578;9.760;2023-06-19T14:34:05;9.53;;;3.53;;
56427;SDS011;42331;53.578;9.760;2023-06-19T14:36:39;3.97;;;2.77;;
56427;SDS011;42331;53.578;9.760;2023-06-19T14:39:09;7.55;;;3.10;;
56427;SDS011;42331;53.578;9.760;2023-06-19T14:41:41;4.03;;;2.90;;
56427;SDS011;42331;53.578;9.760;2023-06-19T14:44:12;4.80;;;3.07;;
56427;SDS011;42331;53.578;9.760;2023-06-19T14:46:42;7.20;;;2.90;;
56427;SDS011;42331;53.578;9.760;2023-06-19T14:49:13;6.83;;;3.37;;
56427;SDS011;42331;53.578;9.760;2023-06-19T14:51:44;4.73;;;2.90;;
56427;SDS011;42331;53.578;9.760;2023-06-19T14:54:14;3.47;;;2.73;;
56427;SDS011;42331;53.578;9.760;2023-06-19T14:56:47;3.63;;;2.70;;
56427;SDS011;42331;53.578;9.760;2023-06-19T14:59:19;6.15;;;3.33;;
56427;SDS011;42331;53.578;9.760;2023-06-19T15:01:50;5.67;;;2.90;;
56427;SDS011;42331;53.578;9.760;2023-06-19T15:04:21;4.68;;;3.30;;
56427;SDS011;42331;53.578;9.760;2023-06-19T15:06:53;6.22;;;3.03;;
56427;SDS011;42331;53.578;9.760;2023-06-19T15:09:23;6.63;;;3.33;;
56427;SDS011;42331;53.578;9.760;2023-06-19T15:11:55;4.60;;;3.00;;
56427;SDS011;42331;53.578;9.760;2023-06-19T15:14:26;5.67;;;2.60;;
56427;SDS011;42331;53.578;9.760;2023-06-19T15:16:57;4.10;;;2.40;;
56427;SDS011;42331;53.578;9.760;2023-06-19T15:19:27;3.73;;;2.50;;
56427;SDS011;42331;53.578;9.760;2023-06-19T15:21:58;3.83;;;2.73;;
56427;SDS011;42331;53.578;9.760;2023-06-19T15:24:29;7.03;;;2.70;;
56427;SDS011;42331;53.578;9.760;2023-06-19T15:26:59;3.47;;;2.53;;